Time;durP1;ratioP1;P1;durP2;ratioP2;P2;SDS_P1;SDS_P2;PMS_P1;PMS_P2;Temp;Humidity;BMP_temperature;BMP_pressure;BME280_temperature;BME280_humidity;BME280_pressure;Samples;Min_cycle;Max_cycle;Signal;HPM_P1;HPM_P2
2023/10/03 05:47:35;;;;;;;18.23;9.33;;;;;;;;;;10539939;28;20435;-85
2023/10/03 05:52:37;;;;;;;19.20;10.10;;;;;;;;;;10500133;28;20079;-85
2023/10/03 05:57:47;;;;;;;18.92;10.23;;;;;;;;;;10449016;22;20046;-87
2023/10/03 06:03:12;;;;;;;19.95;9.45;;;;;;;;;;10372913;28;20037;-88
2023/10/03 06:08:25;;;;;;;18.67;9.68;;;;;;;;;;10371464;28;20038;-88
2023/10/03 06:13:52;;;;;;;15.45;9.40;;;;;;;;;;10352070;28;20504;-88
2023/10/03 06:19:31;;;;;;;16.48;9.30;;;;;;;;;;10371367;28;20131;-87
2023/10/03 06:24:34;;;;;;;18.23;9.85;;;;;;;;;;10371785;28;20034;-88
2023/10/03 06:29:55;;;;;;;16.40;8.90;;;;;;;;;;10370990;28;20112;-88
2023/10/03 06:35:09;;;;;;;17.63;9.27;;;;;;;;;;10371752;28;20057;-87
2023/10/03 06:40:13;;;;;;;14.15;8.18;;;;;;;;;;10372204;28;20030;-90
2023/10/03 06:45:14;;;;;;;13.68;7.78;;;;;;;;;;10371424;28;20080;-87
2023/10/03 06:50:17;;;;;;;14.68;8.38;;;;;;;;;;10377335;28;20125;-87
2023/10/03 06:55:18;;;;;;;14.05;7.80;;;;;;;;;;10362131;28;20030;-88
2023/10/03 07:00:22;;;;;;;11.07;6.70;;;;;;;;;;10344373;28;20022;-88
2023/10/03 07:05:23;;;;;;;11.30;6.47;;;;;;;;;;10343500;28;20030;-88
2023/10/03 07:10:25;;;;;;;12.80;6.63;;;;;;;;;;10343107;28;20108;-88
2023/10/03 07:15:28;;;;;;;14.10;6.80;;;;;;;;;;10341562;28;20030;-88
2023/10/03 07:20:29;;;;;;;9.43;5.70;;;;;;;;;;10344064;28;20032;-88
2023/10/03 07:25:32;;;;;;;8.80;5.50;;;;;;;;;;10342398;28;20123;-88
2023/10/03 07:30:33;;;;;;;10.13;5.50;;;;;;;;;;10342756;28;20026;-89
2023/10/03 07:35:37;;;;;;;7.65;4.88;;;;;;;;;;10342122;28;20030;-88
2023/10/03 07:40:39;;;;;;;7.38;4.30;;;;;;;;;;10341707;28;20022;-88
2023/10/03 07:45:40;;;;;;;5.57;3.90;;;;;;;;;;10343980;28;20076;-88
2023/10/03 07:50:43;;;;;;;6.88;3.70;;;;;;;;;;10357033;28;20022;-89
2023/10/03 07:55:44;;;;;;;8.90;3.75;;;;;;;;;;10348946;28;20034;-89
2023/10/03 08:00:45;;;;;;;6.47;3.97;;;;;;;;;;10352190;28;20121;-88
2023/10/03 08:05:46;;;;;;;6.50;3.80;;;;;;;;;;10354337;28;20026;-89
2023/10/03 08:10:49;;;;;;;6.00;3.58;;;;;;;;;;10352992;28;20034;-89
2023/10/03 08:15:50;;;;;;;5.03;3.58;;;;;;;;;;10341416;28;20432;-89
2023/10/03 08:20:53;;;;;;;5.85;3.70;;;;;;;;;;10341291;28;20022;-89
2023/10/03 08:26:01;;;;;;;5.95;3.40;;;;;;;;;;10340630;28;20084;-89
2023/10/03 08:31:06;;;;;;;6.97;4.03;;;;;;;;;;10342460;28;20475;-90
2023/10/03 08:36:14;;;;;;;6.22;3.85;;;;;;;;;;10341598;28;20062;-89
2023/10/03 08:41:23;;;;;;;7.50;4.05;;;;;;;;;;10341084;28;20382;-90
2023/10/03 08:46:29;;;;;;;6.72;4.25;;;;;;;;;;10339342;28;20026;-89
2023/10/03 08:51:33;;;;;;;6.97;4.10;;;;;;;;;;10347324;28;20022;-89
2023/10/03 08:56:35;;;;;;;6.97;4.50;;;;;;;;;;10342425;28;20494;-89
2023/10/03 09:01:45;;;;;;;10.10;5.30;;;;;;;;;;10339509;28;20085;-89
2023/10/03 09:06:46;;;;;;;6.60;4.35;;;;;;;;;;10344285;28;20110;-89
2023/10/03 09:11:51;;;;;;;7.40;4.28;;;;;;;;;;10345801;28;20092;-89
2023/10/03 09:16:53;;;;;;;9.23;4.45;;;;;;;;;;10343568;28;20026;-89
2023/10/03 09:21:54;;;;;;;9.10;4.40;;;;;;;;;;10344746;28;20204;-89
2023/10/03 09:27:07;;;;;;;9.07;5.10;;;;;;;;;;10343404;28;20394;-90
2023/10/03 09:32:15;;;;;;;7.20;4.18;;;;;;;;;;10346365;28;20026;-90
2023/10/03 09:37:17;;;;;;;6.35;4.32;;;;;;;;;;10342075;28;20030;-89
2023/10/03 09:42:23;;;;;;;6.47;4.38;;;;;;;;;;10346705;28;20026;-88
2023/10/03 09:47:30;;;;;;;7.25;4.40;;;;;;;;;;10348370;28;20034;-89
2023/10/03 09:52:32;;;;;;;7.63;4.68;;;;;;;;;;10341744;28;20230;-89
2023/10/03 09:57:35;;;;;;;8.00;5.05;;;;;;;;;;10344354;28;20026;-89
2023/10/03 10:02:37;;;;;;;8.20;4.93;;;;;;;;;;10340870;28;20025;-89
2023/10/03 10:07:50;;;;;;;8.13;4.75;;;;;;;;;;10340495;28;20037;-90
2023/10/03 10:13:28;;;;;;;6.90;4.50;;;;;;;;;;10342263;28;20030;-89
2023/10/03 10:18:44;;;;;;;6.18;4.32;;;;;;;;;;10333636;28;20038;-88
2023/10/03 10:24:05;;;;;;;8.52;4.30;;;;;;;;;;10343358;28;20111;-89
2023/10/03 10:29:11;;;;;;;7.35;5.13;;;;;;;;;;10339044;28;20085;-88
2023/10/03 10:34:19;;;;;;;5.80;4.38;;;;;;;;;;10345884;28;20030;-88
2023/10/03 10:39:23;;;;;;;6.95;4.32;;;;;;;;;;10346751;28;20031;-88
2023/10/03 10:44:24;;;;;;;7.78;4.40;;;;;;;;;;10348415;28;20026;-88
2023/10/03 10:49:31;;;;;;;5.93;4.18;;;;;;;;;;10346758;28;20058;-88
2023/10/03 10:54:32;;;;;;;8.90;5.00;;;;;;;;;;10350860;28;20022;-88
2023/10/03 10:59:35;;;;;;;7.95;4.50;;;;;;;;;;10348425;28;20048;-88
2023/10/03 11:04:36;;;;;;;4.10;2.25;;;;;;;;;;10350082;28;20023;-88
2023/10/03 11:09:38;;;;;;;1.73;1.27;;;;;;;;;;10346012;28;20446;-88
2023/10/03 11:14:40;;;;;;;3.00;1.38;;;;;;;;;;10349144;28;20041;-88
2023/10/03 11:19:41;;;;;;;2.15;0.90;;;;;;;;;;10345980;28;20022;-88
2023/10/03 11:24:43;;;;;;;1.88;0.70;;;;;;;;;;10347697;28;20049;-87
2023/10/03 11:29:46;;;;;;;1.48;0.70;;;;;;;;;;10344288;28;20475;-88
2023/10/03 11:34:48;;;;;;;2.33;0.70;;;;;;;;;;10342858;28;20038;-88
2023/10/03 11:39:49;;;;;;;1.42;0.60;;;;;;;;;;10344575;28;20018;-88
2023/10/03 11:45:03;;;;;;;1.88;1.08;;;;;;;;;;10342659;28;20118;-88
2023/10/03 11:50:06;;;;;;;2.53;0.93;;;;;;;;;;10343551;28;20034;-88
2023/10/03 12:00:15;;;;;;;2.70;1.00;;;;;;;;;;10342851;28;20053;-85
2023/10/03 12:05:16;;;;;;;2.00;0.90;;;;;;;;;;10348359;28;20402;-86
2023/10/03 12:10:18;;;;;;;1.42;0.50;;;;;;;;;;10349747;28;20129;-85
2023/10/03 12:15:23;;;;;;;1.70;0.50;;;;;;;;;;10350320;28;20375;-86
2023/10/03 12:20:24;;;;;;;2.05;0.80;;;;;;;;;;10345393;28;20023;-85
2023/10/03 12:25:27;;;;;;;1.40;0.60;;;;;;;;;;10343543;28;20029;-86
2023/10/03 12:30:28;;;;;;;1.95;0.77;;;;;;;;;;10341258;28;20033;-86
2023/10/03 12:35:30;;;;;;;2.33;0.57;;;;;;;;;;10348716;28;20052;-85
2023/10/03 12:40:31;;;;;;;1.73;0.52;;;;;;;;;;10364208;28;20021;-84
2023/10/03 12:45:32;;;;;;;2.58;0.70;;;;;;;;;;10357994;28;20028;-85
2023/10/03 12:50:34;;;;;;;1.50;0.60;;;;;;;;;;10354157;28;20069;-86
2023/10/03 12:55:35;;;;;;;1.75;0.60;;;;;;;;;;10358664;28;20034;-84
2023/10/03 13:00:36;;;;;;;2.55;0.98;;;;;;;;;;10358931;28;20021;-84
2023/10/03 13:05:37;;;;;;;1.75;0.70;;;;;;;;;;10351550;28;20034;-84
2023/10/03 13:10:41;;;;;;;1.55;0.50;;;;;;;;;;10374417;28;20035;-86
2023/10/03 13:15:42;;;;;;;1.23;0.52;;;;;;;;;;10346485;28;20018;-84
2023/10/03 13:20:45;;;;;;;2.22;0.50;;;;;;;;;;10345083;28;20045;-85
2023/10/03 13:25:46;;;;;;;1.65;0.50;;;;;;;;;;10344693;28;20557;-85
2023/10/03 13:30:47;;;;;;;2.33;0.60;;;;;;;;;;10345678;28;20470;-86
2023/10/03 13:35:48;;;;;;;1.77;0.40;;;;;;;;;;10342524;28;20023;-85
2023/10/03 13:40:50;;;;;;;1.05;0.40;;;;;;;;;;10346284;28;20026;-85
2023/10/03 13:45:51;;;;;;;1.63;0.40;;;;;;;;;;10351968;28;20505;-85
2023/10/03 13:50:52;;;;;;;1.52;0.60;;;;;;;;;;10373250;28;20030;-84
2023/10/03 13:55:54;;;;;;;1.80;0.65;;;;;;;;;;10378082;28;20046;-84
2023/10/03 14:00:55;;;;;;;0.82;0.40;;;;;;;;;;10345667;28;20367;-85
2023/10/03 14:05:57;;;;;;;1.02;0.50;;;;;;;;;;10346085;28;20125;-85
2023/10/03 14:10:58;;;;;;;1.95;0.63;;;;;;;;;;10352326;28;20022;-84
2023/10/03 14:15:59;;;;;;;2.90;0.60;;;;;;;;;;10353709;28;20482;-85
2023/10/03 14:21:01;;;;;;;2.22;0.70;;;;;;;;;;10354597;28;20143;-84
2023/10/03 14:26:02;;;;;;;3.17;0.90;;;;;;;;;;10353996;28;20459;-84
2023/10/03 14:31:04;;;;;;;1.30;0.68;;;;;;;;;;10359257;28;20045;-84
2023/10/03 14:36:05;;;;;;;3.25;0.85;;;;;;;;;;10355230;28;20100;-86
2023/10/03 14:41:07;;;;;;;2.17;0.95;;;;;;;;;;10360748;28;20120;-86
2023/10/03 14:46:10;;;;;;;2.88;1.17;;;;;;;;;;10360173;28;20077;-86
2023/10/03 14:51:12;;;;;;;3.08;1.20;;;;;;;;;;10351687;28;20482;-85
2023/10/03 14:56:13;;;;;;;4.28;1.08;;;;;;;;;;10358228;28;20099;-85
2023/10/03 15:01:14;;;;;;;2.22;1.15;;;;;;;;;;10379868;28;20026;-86
2023/10/03 15:06:15;;;;;;;3.90;1.48;;;;;;;;;;10352070;28;20031;-85
2023/10/03 15:11:16;;;;;;;3.33;1.23;;;;;;;;;;10342435;28;20027;-85
2023/10/03 15:16:17;;;;;;;5.07;2.45;;;;;;;;;;10342193;28;20474;-85
2023/10/03 15:21:18;;;;;;;2.97;1.40;;;;;;;;;;10342908;28;20054;-84
2023/10/03 15:26:20;;;;;;;3.38;1.45;;;;;;;;;;10343565;28;20113;-84
2023/10/03 15:31:22;;;;;;;3.13;1.45;;;;;;;;;;10344772;28;20041;-84
2023/10/03 15:36:24;;;;;;;3.95;1.75;;;;;;;;;;10349817;28;20034;-84
2023/10/03 15:41:25;;;;;;;4.72;2.42;;;;;;;;;;10378824;28;20066;-84
2023/10/03 15:46:26;;;;;;;3.30;1.40;;;;;;;;;;10355737;28;20081;-84
2023/10/03 15:51:27;;;;;;;4.07;1.77;;;;;;;;;;10345887;28;20586;-86
2023/10/03 15:56:29;;;;;;;3.05;1.27;;;;;;;;;;10358943;28;20054;-85
2023/10/03 16:01:31;;;;;;;3.67;1.60;;;;;;;;;;10349673;28;20122;-85
2023/10/03 16:06:37;;;;;;;4.80;2.03;;;;;;;;;;10365486;28;20098;-85
2023/10/03 16:11:40;;;;;;;3.88;2.00;;;;;;;;;;10345344;28;20502;-85
2023/10/03 16:16:43;;;;;;;3.90;1.90;;;;;;;;;;10340653;28;20097;-87
2023/10/03 16:21:44;;;;;;;5.00;3.22;;;;;;;;;;10340750;28;20034;-85
2023/10/03 16:26:45;;;;;;;4.57;1.88;;;;;;;;;;10342627;28;20406;-84
2023/10/03 16:31:46;;;;;;;3.72;1.58;;;;;;;;;;10345398;28;20049;-86
2023/10/03 16:36:49;;;;;;;4.15;1.50;;;;;;;;;;10350469;28;20037;-85
2023/10/03 16:41:54;;;;;;;2.58;1.35;;;;;;;;;;10353583;28;20026;-87
2023/10/03 16:46:57;;;;;;;4.47;1.65;;;;;;;;;;10356663;28;20042;-86
2023/10/03 16:51:58;;;;;;;3.75;1.80;;;;;;;;;;10358165;28;20030;-87
2023/10/03 16:57:01;;;;;;;3.83;1.48;;;;;;;;;;10383640;28;20090;-87
2023/10/03 17:02:03;;;;;;;4.20;1.60;;;;;;;;;;10356147;28;20483;-84
2023/10/03 17:07:04;;;;;;;4.22;1.90;;;;;;;;;;10354697;28;20030;-86
2023/10/03 17:12:05;;;;;;;2.65;1.40;;;;;;;;;;10358866;28;20050;-86
2023/10/03 17:17:08;;;;;;;2.80;1.60;;;;;;;;;;10347434;28;20030;-85
2023/10/03 17:22:09;;;;;;;2.63;1.63;;;;;;;;;;10345844;28;20561;-85
2023/10/03 17:27:12;;;;;;;4.68;1.67;;;;;;;;;;10345453;28;20033;-85
2023/10/03 17:32:13;;;;;;;3.00;1.63;;;;;;;;;;10346910;28;20130;-85
2023/10/03 17:37:16;;;;;;;2.75;1.45;;;;;;;;;;10347453;28;20053;-86
2023/10/03 17:42:17;;;;;;;2.47;1.42;;;;;;;;;;10346726;28;20026;-85
2023/10/03 17:47:18;;;;;;;4.10;1.52;;;;;;;;;;10347284;28;20065;-85
2023/10/03 17:52:19;;;;;;;4.53;2.10;;;;;;;;;;10347016;28;20529;-86
2023/10/03 17:57:20;;;;;;;3.65;1.50;;;;;;;;;;10391243;22;20041;-84
2023/10/03 18:02:21;;;;;;;2.60;1.60;;;;;;;;;;10423018;28;20097;-84
2023/10/03 18:07:26;;;;;;;3.67;1.80;;;;;;;;;;10425718;28;20041;-84
2023/10/03 18:12:27;;;;;;;3.25;1.80;;;;;;;;;;10425258;28;20037;-85
2023/10/03 18:17:28;;;;;;;4.03;1.60;;;;;;;;;;10423805;28;20068;-85
2023/10/03 18:22:30;;;;;;;3.75;2.30;;;;;;;;;;10434342;28;20082;-83
2023/10/03 18:27:31;;;;;;;2.95;1.85;;;;;;;;;;10465169;28;20009;-82
2023/10/03 18:32:33;;;;;;;3.38;1.70;;;;;;;;;;10434440;28;20463;-86
2023/10/03 18:37:34;;;;;;;3.20;1.63;;;;;;;;;;10425851;28;20030;-85
2023/10/03 18:42:38;;;;;;;3.00;1.38;;;;;;;;;;10425938;28;20029;-85
2023/10/03 18:47:40;;;;;;;5.30;2.58;;;;;;;;;;10426917;28;20025;-84
2023/10/03 18:52:41;;;;;;;4.82;2.47;;;;;;;;;;10428522;28;20057;-84
2023/10/03 18:57:43;;;;;;;2.00;1.30;;;;;;;;;;10432854;28;20037;-84
2023/10/03 19:02:44;;;;;;;4.05;2.15;;;;;;;;;;10432658;28;20463;-84
2023/10/03 19:07:45;;;;;;;4.43;2.65;;;;;;;;;;10431387;28;20051;-85
